Weather History for Bentonville, AR

Change the Weather History Date:

Tuesday, January 17, 2012

  Actual Average Record
Temperature  
Mean Temperature 46 °F -  
Max Temperature 64 °F 43 °F 72 °F (1952)
Min Temperature 28 °F 24 °F -2 °F (1978)
Degree Days  
Heating Degree Days 19    
Moisture  
Dew Point 27 °F    
Average Humidity 61    
Maximum Humidity 77    
Minimum Humidity 41    
Precipitation  
Precipitation 0.00 in - - ()
Sea Level Pressure  
Sea Level Pressure 30.09 in    
Wind  
Wind Speed 15 mph (NW)    
Max Wind Speed 23 mph    
Max Gust Speed 34 mph    
Visibility 10 miles    
Events      
Averages and records for this station are not official NWS values.
T = Trace of Precipitation, MM = Missing Value Source: NWS Daily Summary

Daily Weather History Graph

Daily Weather History Graph

Search for Another Location

Airport:

Trip Planner

Search our weather history database for the weather conditions in past years. The results will help you decide how hot, cold, wet, or windy it might be!

Date:

Astronomy

Jan. 17, 2012 Rise Set
Actual Time 7:27 AM CST 5:26 PM CST
Civil Twilight 6:59 AM CST 5:54 PM CST
Nautical Twilight 6:27 AM CST 6:26 PM CST
Astronomical Twilight 5:56 AM CST 6:57 PM CST
Moon 1:48 AM CST (1/17) 12:20 PM CST (1/17)
Length of Visible Light 10h 55m
Length of Day
9h 59m
Waning Crescent, 35% of the Moon is Illuminated
Jan 17
Waning Crescent
Jan 23
New
Jan 30
First Quarter
Feb 7
Full
Feb 14
Last Quarter

Hourly Weather History & Observations

Time (CST) Temp. Windchill Dew Point Humidity Pressure Visibility Wind Dir Wind Speed Gust Speed Precip Events Conditions
12:15 AM 64.4 °F - 55.4 °F 73% 29.75 in 10.0 mi SW 17.3 mph 32.2 mph N/A   Mostly Cloudy
12:35 AM 64.4 °F - 55.4 °F 73% 29.74 in 10.0 mi SSW 18.4 mph 34.5 mph N/A   Scattered Clouds
12:55 AM 64.4 °F - 55.4 °F 73% 29.74 in 10.0 mi SSW 18.4 mph 26.5 mph N/A   Partly Cloudy
1:15 AM 64.4 °F - 55.4 °F 73% 29.73 in 10.0 mi SSW 17.3 mph 23.0 mph N/A   Clear
1:35 AM 62.6 °F - 55.4 °F 77% 29.73 in 10.0 mi SSW 15.0 mph 25.3 mph N/A   Clear
1:55 AM 62.6 °F - 55.4 °F 77% 29.73 in 10.0 mi SSW 17.3 mph 27.6 mph N/A   Clear
2:15 AM 62.6 °F - 55.4 °F 77% 29.74 in 10.0 mi SSW 17.3 mph 24.2 mph N/A   Clear
2:35 AM 62.6 °F - 55.4 °F 77% 29.75 in 10.0 mi SW 16.1 mph 24.2 mph N/A   Clear
2:55 AM 62.6 °F - 55.4 °F 77% 29.76 in 10.0 mi SW 17.3 mph 25.3 mph N/A   Clear
3:35 AM 62.6 °F - 53.6 °F 72% 29.78 in 10.0 mi SW 17.3 mph 24.2 mph N/A   Mostly Cloudy
3:55 AM 62.6 °F - 53.6 °F 72% 29.79 in 10.0 mi WSW 16.1 mph 25.3 mph N/A   Overcast
4:15 AM 60.8 °F - 50.0 °F 68% 29.82 in 10.0 mi NW 23.0 mph 29.9 mph N/A   Mostly Cloudy
4:35 AM 48.2 °F - 41.0 °F 76% 29.86 in 10.0 mi NW 19.6 mph 31.1 mph N/A   Overcast
4:55 AM 44.6 °F 37.4 °F 37.4 °F 76% 29.90 in 10.0 mi NW 16.1 mph 27.6 mph N/A   Overcast
5:15 AM 42.8 °F 37.5 °F 33.8 °F 70% 29.93 in 10.0 mi NNW 9.2 mph 23.0 mph N/A   Mostly Cloudy
5:35 AM 39.2 °F 30.5 °F 30.2 °F 70% 29.95 in 10.0 mi NNW 16.1 mph 23.0 mph N/A   Overcast
6:15 AM 35.6 °F 26.6 °F 26.6 °F 70% 29.99 in 10.0 mi NW 13.8 mph 19.6 mph N/A   Clear
6:35 AM 35.6 °F 28.0 °F 26.6 °F 70% 30.01 in 10.0 mi NW 10.4 mph - N/A   Clear
6:55 AM 35.6 °F 27.1 °F 26.6 °F 70% 30.04 in 10.0 mi NW 12.7 mph 17.3 mph N/A   Clear
7:35 AM 32.0 °F 20.8 °F 23.0 °F 69% 30.08 in 10.0 mi NW 17.3 mph 21.9 mph N/A   Clear
7:55 AM 30.2 °F 18.9 °F 21.2 °F 69% 30.09 in 10.0 mi NW 16.1 mph 23.0 mph N/A   Clear
8:15 AM 30.2 °F 19.3 °F 21.2 °F 69% 30.11 in 10.0 mi WNW 15.0 mph 19.6 mph N/A   Clear
8:35 AM 30.2 °F 18.9 °F 21.2 °F 69% 30.13 in 10.0 mi NW 16.1 mph - N/A   Clear
8:55 AM 30.2 °F 19.8 °F 19.4 °F 64% 30.15 in 10.0 mi NW 13.8 mph 19.6 mph N/A   Clear
9:15 AM 30.2 °F 20.8 °F 17.6 °F 60% 30.17 in 10.0 mi NNW 11.5 mph 20.7 mph N/A   Clear
9:35 AM 30.2 °F 18.9 °F 17.6 °F 60% 30.19 in 10.0 mi NW 16.1 mph 21.9 mph N/A   Clear
9:55 AM 28.4 °F 17.0 °F 17.6 °F 64% 30.20 in 10.0 mi NW 15.0 mph 21.9 mph N/A   Clear
10:15 AM 30.2 °F 19.3 °F 19.4 °F 64% 30.21 in 10.0 mi NW 15.0 mph 20.7 mph N/A   Clear
10:35 AM 30.2 °F 19.3 °F 17.6 °F 60% 30.22 in 10.0 mi NNW 15.0 mph 19.6 mph N/A   Clear
10:55 AM 30.2 °F 19.3 °F 17.6 °F 60% 30.22 in 10.0 mi NW 15.0 mph 18.4 mph N/A   Clear
11:15 AM 30.2 °F 19.8 °F 17.6 °F 60% 30.22 in 10.0 mi NW 13.8 mph 18.4 mph N/A   Clear
11:35 AM 30.2 °F 19.8 °F 17.6 °F 60% 30.22 in 10.0 mi NNW 13.8 mph 19.6 mph N/A   Clear
11:55 AM 32.0 °F 23.6 °F 17.6 °F 55% 30.22 in 10.0 mi NNW 10.4 mph 17.3 mph N/A   Clear
12:15 PM 33.8 °F 25.8 °F 17.6 °F 52% 30.22 in 10.0 mi NNW 10.4 mph - N/A   Clear
12:35 PM 33.8 °F 23.9 °F 17.6 °F 52% 30.21 in 10.0 mi North 15.0 mph 19.6 mph N/A   Clear
12:55 PM 33.8 °F 24.3 °F 17.6 °F 52% 30.21 in 10.0 mi NNW 13.8 mph 20.7 mph N/A   Clear
1:35 PM 35.6 °F 26.2 °F 17.6 °F 48% 30.20 in 10.0 mi North 15.0 mph - N/A   Clear
1:55 PM 35.6 °F 28.0 °F 19.4 °F 52% 30.20 in 10.0 mi NNW 10.4 mph - N/A   Clear
2:15 PM 35.6 °F 27.1 °F 17.6 °F 48% 30.21 in 10.0 mi North 12.7 mph - N/A   Clear
2:35 PM 37.4 °F 28.5 °F 17.6 °F 45% 30.21 in 10.0 mi North 15.0 mph 19.6 mph N/A   Clear
2:55 PM 37.4 °F 27.5 °F 15.8 °F 41% 30.22 in 10.0 mi North 18.4 mph 21.9 mph N/A   Clear
3:15 PM 37.4 °F 29.3 °F 17.6 °F 45% 30.23 in 10.0 mi North 12.7 mph 18.4 mph N/A   Clear
3:55 PM 37.4 °F 28.5 °F 15.8 °F 41% 30.25 in 10.0 mi North 15.0 mph 21.9 mph N/A   Clear
4:35 PM 35.6 °F 27.5 °F 15.8 °F 44% 30.25 in 10.0 mi NNW 11.5 mph 17.3 mph N/A   Clear
4:55 PM 35.6 °F 27.1 °F 15.8 °F 44% 30.26 in 10.0 mi North 12.7 mph 16.1 mph N/A   Clear
5:15 PM 33.8 °F 24.8 °F 15.8 °F 48% 30.27 in 10.0 mi NNW 12.7 mph 17.3 mph N/A   Clear
5:35 PM 33.8 °F 26.4 °F 15.8 °F 48% 30.27 in 10.0 mi NNW 9.2 mph - N/A   Clear
5:55 PM 32.0 °F 25.6 °F 15.8 °F 51% 30.27 in 10.0 mi North 6.9 mph - N/A   Clear
6:15 PM 32.0 °F 25.6 °F 15.8 °F 51% 30.27 in 10.0 mi North 6.9 mph - N/A   Clear
6:35 PM 30.2 °F 21.9 °F 17.6 °F 60% 30.28 in 10.0 mi North 9.2 mph - N/A   Clear
6:55 PM 30.2 °F 22.6 °F 17.6 °F 60% 30.28 in 10.0 mi North 8.1 mph - N/A   Clear
7:15 PM 30.2 °F 22.6 °F 15.8 °F 55% 30.28 in 10.0 mi NNE 8.1 mph - N/A   Clear
7:35 PM 30.2 °F 22.6 °F 15.8 °F 55% 30.29 in 10.0 mi North 8.1 mph - N/A   Clear
7:55 PM 30.2 °F 23.4 °F 15.8 °F 55% 30.30 in 10.0 mi North 6.9 mph - N/A   Clear
8:15 PM 28.4 °F 22.2 °F 15.8 °F 59% 30.31 in 10.0 mi North 5.8 mph - N/A   Clear
8:35 PM 28.4 °F 21.2 °F 15.8 °F 59% 30.31 in 10.0 mi North 6.9 mph - N/A   Clear
8:55 PM 28.4 °F 20.4 °F 15.8 °F 59% 30.30 in 10.0 mi North 8.1 mph - N/A   Clear
9:15 PM 28.4 °F 24.6 °F 15.8 °F 59% 30.33 in 10.0 mi NW 3.5 mph - N/A   Clear
9:35 PM 28.4 °F 24.6 °F 15.8 °F 59% 30.34 in 10.0 mi NNW 3.5 mph - N/A   Clear
9:55 PM 26.6 °F 22.6 °F 15.8 °F 64% 30.33 in 10.0 mi North 3.5 mph - N/A   Clear
10:15 PM 26.6 °F - 15.8 °F 64% 30.33 in 10.0 mi Calm Calm - N/A   Clear
10:35 PM 26.6 °F 22.6 °F 15.8 °F 64% 30.34 in 10.0 mi North 3.5 mph - N/A   Clear
10:55 PM 26.6 °F - 15.8 °F 64% 30.35 in 10.0 mi Calm Calm - N/A   Clear
11:15 PM 24.8 °F - 15.8 °F 69% 30.34 in 10.0 mi Calm Calm - N/A   Clear
11:35 PM 24.8 °F 17.9 °F 14.0 °F 64% 30.35 in 10.0 mi NNE 5.8 mph - N/A   Clear
11:55 PM 24.8 °F 17.9 °F 15.8 °F 69% 30.35 in 10.0 mi NNE 5.8 mph - N/A   Clear